Time;durP1;ratioP1;P1;durP2;ratioP2;P2;SDS_P1;SDS_P2;PMS_P1;PMS_P2;Temp;Humidity;BMP_temperature;BMP_pressure;BME280_temperature;BME280_humidity;BME280_pressure;Samples;Min_cycle;Max_cycle;Signal;HPM_P1;HPM_P2
2023/04/07 00:00:32;;;;;;;4.50;2.17;;;;;;;;;;4951301;28;20059;-64
2023/04/07 00:03:05;;;;;;;3.78;1.73;;;;;;;;;;4967112;28;20051;-62
2023/04/07 00:05:35;;;;;;;5.13;2.00;;;;;;;;;;4992279;28;20057;-62
2023/04/07 00:08:06;;;;;;;3.90;1.88;;;;;;;;;;4992479;28;20538;-62
2023/04/07 00:10:36;;;;;;;4.38;1.80;;;;;;;;;;4953395;29;20052;-63
2023/04/07 00:13:09;;;;;;;2.75;1.63;;;;;;;;;;4937980;29;20448;-62
2023/04/07 00:15:43;;;;;;;3.40;1.83;;;;;;;;;;4937105;29;20051;-63
2023/04/07 00:18:16;;;;;;;4.00;2.15;;;;;;;;;;4915074;29;20052;-63
2023/04/07 00:20:45;;;;;;;4.82;2.13;;;;;;;;;;4883565;29;20071;-63
2023/04/07 00:23:15;;;;;;;3.83;1.88;;;;;;;;;;4915409;29;20060;-62
2023/04/07 00:25:48;;;;;;;4.22;1.92;;;;;;;;;;4877290;29;20124;-64
2023/04/07 00:28:18;;;;;;;5.88;1.80;;;;;;;;;;4846671;29;20061;-63
2023/04/07 00:30:47;;;;;;;3.72;2.25;;;;;;;;;;4840208;29;20053;-63
2023/04/07 00:33:17;;;;;;;5.15;2.42;;;;;;;;;;4840103;29;20544;-63
2023/04/07 00:35:48;;;;;;;5.60;2.80;;;;;;;;;;4821524;29;20065;-62
2023/04/07 00:38:19;;;;;;;4.95;2.22;;;;;;;;;;4826459;29;20070;-62
2023/04/07 00:40:48;;;;;;;3.92;1.98;;;;;;;;;;4840459;29;20084;-62
2023/04/07 00:43:18;;;;;;;4.35;2.50;;;;;;;;;;4840127;29;20058;-62
2023/04/07 00:45:49;;;;;;;5.60;1.98;;;;;;;;;;4840118;29;20466;-63
2023/04/07 00:48:19;;;;;;;4.00;2.10;;;;;;;;;;4849939;29;20060;-62
2023/04/07 00:50:49;;;;;;;4.90;2.20;;;;;;;;;;4839762;29;20054;-61
2023/04/07 00:53:20;;;;;;;4.18;1.83;;;;;;;;;;4839591;29;20081;-63
2023/04/07 00:55:50;;;;;;;4.53;2.28;;;;;;;;;;4851283;29;20044;-61
2023/04/07 00:58:20;;;;;;;4.38;2.30;;;;;;;;;;4895518;29;20160;-60
2023/04/07 01:01:15;;;;;;;4.55;2.22;;;;;;;;;;4857895;29;20525;-60
2023/04/07 01:03:52;;;;;;;4.97;2.33;;;;;;;;;;4832675;29;20088;-60
2023/04/07 01:06:26;;;;;;;4.13;2.20;;;;;;;;;;4842576;29;20061;-61
2023/04/07 01:09:06;;;;;;;5.32;2.50;;;;;;;;;;4844997;29;20050;-61
2023/04/07 01:11:43;;;;;;;5.00;2.30;;;;;;;;;;4839090;29;20431;-63
2023/04/07 01:14:19;;;;;;;5.30;2.22;;;;;;;;;;4809875;29;20046;-61
2023/04/07 01:17:03;;;;;;;3.92;2.08;;;;;;;;;;4793600;29;20536;-61
2023/04/07 01:19:41;;;;;;;;;;;;;;;;;;4803228;29;20420;-61
2023/04/07 01:22:17;;;;;;;5.63;1.77;;;;;;;;;;4802662;29;19933;-64
2023/04/07 01:25:21;;;;;;;2.75;1.50;;;;;;;;;;4795507;29;20551;-64
2023/04/07 01:28:12;;;;;;;2.70;1.25;;;;;;;;;;4802955;29;20678;-63
2023/04/07 01:30:44;;;;;;;2.50;1.50;;;;;;;;;;4802744;29;20498;-63
2023/04/07 01:33:15;;;;;;;3.75;2.38;;;;;;;;;;4802751;29;20170;-64
2023/04/07 01:35:47;;;;;;;4.13;2.22;;;;;;;;;;4802825;29;20488;-63
2023/04/07 01:38:17;;;;;;;;;;;;;;;;;;4810392;29;20096;-63
2023/04/07 01:40:48;;;;;;;3.95;2.20;;;;;;;;;;4839052;29;19932;-63
2023/04/07 01:43:18;;;;;;;4.95;2.70;;;;;;;;;;4838965;29;20057;-63
2023/04/07 01:45:49;;;;;;;4.93;2.55;;;;;;;;;;4863382;29;20071;-63
2023/04/07 01:48:20;;;;;;;6.53;2.60;;;;;;;;;;4863294;29;20064;-63
2023/04/07 01:50:51;;;;;;;7.07;3.08;;;;;;;;;;4908830;29;20056;-63
2023/04/07 01:53:22;;;;;;;9.13;4.18;;;;;;;;;;4899551;29;20052;-63
2023/04/07 01:55:53;;;;;;;11.88;5.00;;;;;;;;;;4878571;29;20044;-63
2023/04/07 01:58:24;;;;;;;11.95;5.43;;;;;;;;;;4893806;29;20060;-63
2023/04/07 02:00:55;;;;;;;11.82;5.70;;;;;;;;;;4878939;29;20048;-63
2023/04/07 02:03:44;;;;;;;12.68;5.90;;;;;;;;;;4930096;29;20062;-63
2023/04/07 02:06:20;;;;;;;10.48;4.20;;;;;;;;;;4931933;29;20075;-62
2023/04/07 02:08:55;;;;;;;7.97;4.07;;;;;;;;;;4862966;29;20056;-62
2023/04/07 02:11:26;;;;;;;7.20;3.25;;;;;;;;;;4893965;29;20075;-63
2023/04/07 02:14:03;;;;;;;8.30;4.28;;;;;;;;;;4931487;29;20056;-63
2023/04/07 02:16:44;;;;;;;3.80;2.20;;;;;;;;;;4853643;29;20065;-63
2023/04/07 02:19:17;;;;;;;4.88;2.10;;;;;;;;;;4837874;29;20061;-63
2023/04/07 02:21:49;;;;;;;4.30;1.60;;;;;;;;;;4838489;29;20072;-62
2023/04/07 02:24:23;;;;;;;4.15;1.83;;;;;;;;;;4825407;29;20061;-62
2023/04/07 02:26:53;;;;;;;3.42;1.75;;;;;;;;;;4856454;29;20056;-62
2023/04/07 02:29:24;;;;;;;3.83;1.70;;;;;;;;;;4856350;29;20072;-62
2023/04/07 02:31:55;;;;;;;4.57;1.92;;;;;;;;;;4810422;29;20416;-62
2023/04/07 02:34:25;;;;;;;3.58;2.03;;;;;;;;;;4822809;29;20054;-62
2023/04/07 02:36:55;;;;;;;3.47;1.83;;;;;;;;;;4835611;29;20057;-62
2023/04/07 02:39:25;;;;;;;4.90;2.00;;;;;;;;;;4855052;29;20507;-64
2023/04/07 02:41:55;;;;;;;3.53;1.83;;;;;;;;;;4855662;29;20905;-62
2023/04/07 02:44:25;;;;;;;3.75;2.10;;;;;;;;;;4872062;29;20095;-62
2023/04/07 02:46:55;;;;;;;3.75;1.92;;;;;;;;;;4874679;29;20041;-62
2023/04/07 02:49:25;;;;;;;3.65;2.10;;;;;;;;;;4886641;29;20587;-63
2023/04/07 02:51:55;;;;;;;3.55;1.95;;;;;;;;;;4882415;29;20049;-62
2023/04/07 02:54:25;;;;;;;4.93;2.22;;;;;;;;;;4838244;29;20054;-62
2023/04/07 02:56:56;;;;;;;5.38;2.08;;;;;;;;;;4810824;29;20047;-62
2023/04/07 02:59:26;;;;;;;4.88;2.00;;;;;;;;;;4783485;29;20055;-62
2023/04/07 03:01:57;;;;;;;3.08;1.67;;;;;;;;;;4801525;29;20054;-62
2023/04/07 03:04:28;;;;;;;4.10;2.17;;;;;;;;;;4777200;29;20050;-62
2023/04/07 03:07:00;;;;;;;8.07;3.53;;;;;;;;;;4794842;29;20055;-62
2023/04/07 03:09:32;;;;;;;9.02;4.28;;;;;;;;;;4801185;29;20424;-62
2023/04/07 03:12:03;;;;;;;9.65;4.20;;;;;;;;;;4801458;29;20544;-62
2023/04/07 03:14:36;;;;;;;10.60;4.80;;;;;;;;;;4801176;29;20543;-62
2023/04/07 03:17:06;;;;;;;13.10;6.22;;;;;;;;;;4786715;29;20523;-63
2023/04/07 03:19:36;;;;;;;12.82;6.32;;;;;;;;;;4801278;29;20070;-62
2023/04/07 03:22:05;;;;;;;12.95;6.40;;;;;;;;;;4801405;29;20051;-62
2023/04/07 03:24:40;;;;;;;15.40;6.15;;;;;;;;;;4797253;29;20513;-63
2023/04/07 03:27:10;;;;;;;16.60;6.70;;;;;;;;;;4783234;29;20544;-62
2023/04/07 03:29:45;;;;;;;17.50;7.13;;;;;;;;;;4751012;30;20052;-62
2023/04/07 03:32:17;;;;;;;17.38;6.85;;;;;;;;;;4754993;30;20056;-62
2023/04/07 03:34:46;;;;;;;19.27;7.68;;;;;;;;;;4775417;29;20058;-62
2023/04/07 03:37:17;;;;;;;18.77;7.50;;;;;;;;;;4776388;29;20775;-62
2023/04/07 03:39:47;;;;;;;20.38;7.60;;;;;;;;;;4768385;30;20048;-62
2023/04/07 03:42:27;;;;;;;20.17;7.40;;;;;;;;;;4768552;30;20063;-62
2023/04/07 03:45:03;;;;;;;20.25;7.35;;;;;;;;;;4756859;30;20060;-63
2023/04/07 03:47:34;;;;;;;19.63;8.05;;;;;;;;;;4768634;30;20058;-63
2023/04/07 03:50:06;;;;;;;23.38;7.97;;;;;;;;;;4750517;30;20060;-62
2023/04/07 03:52:46;;;;;;;21.33;8.30;;;;;;;;;;4741023;30;20413;-62
2023/04/07 03:55:27;;;;;;;19.38;7.68;;;;;;;;;;4763659;30;20079;-62
2023/04/07 03:58:01;;;;;;;22.25;8.75;;;;;;;;;;4782485;30;20074;-62
2023/04/07 04:00:34;;;;;;;20.80;7.70;;;;;;;;;;4765578;30;20056;-62
2023/04/07 04:03:08;;;;;;;20.30;8.23;;;;;;;;;;4786212;30;20503;-64
2023/04/07 04:05:48;;;;;;;28.90;8.65;;;;;;;;;;4822168;29;20046;-65
2023/04/07 04:08:23;;;;;;;22.15;8.05;;;;;;;;;;4858719;29;20530;-63
2023/04/07 04:10:53;;;;;;;24.92;9.07;;;;;;;;;;4859190;29;20049;-63
2023/04/07 04:13:25;;;;;;;24.90;10.10;;;;;;;;;;4858599;29;20490;-62
2023/04/07 04:15:58;;;;;;;27.92;10.50;;;;;;;;;;4840220;29;20452;-64
2023/04/07 04:18:28;;;;;;;26.85;10.02;;;;;;;;;;4788684;29;20047;-63
2023/04/07 04:20:58;;;;;;;30.50;10.27;;;;;;;;;;4804016;29;20051;-62
2023/04/07 04:23:28;;;;;;;28.52;9.43;;;;;;;;;;4769385;29;20067;-63
2023/04/07 04:26:02;;;;;;;24.77;8.05;;;;;;;;;;4763830;29;20097;-63
2023/04/07 04:28:33;;;;;;;26.10;8.40;;;;;;;;;;4785458;29;20059;-62
2023/04/07 04:31:05;;;;;;;24.63;7.78;;;;;;;;;;4785912;29;20570;-62
2023/04/07 04:33:40;;;;;;;25.17;8.88;;;;;;;;;;4785584;29;20413;-63
2023/04/07 04:36:10;;;;;;;24.88;8.48;;;;;;;;;;4803621;29;20093;-62
2023/04/07 04:38:41;;;;;;;23.85;8.63;;;;;;;;;;4779439;29;20132;-63
2023/04/07 04:41:17;;;;;;;28.15;9.23;;;;;;;;;;4779873;30;20051;-62
2023/04/07 04:43:49;;;;;;;29.13;9.43;;;;;;;;;;4791979;29;20054;-63
2023/04/07 04:46:23;;;;;;;27.20;9.27;;;;;;;;;;4756076;30;20133;-64
2023/04/07 04:48:54;;;;;;;26.13;9.00;;;;;;;;;;4731961;30;20067;-63
2023/04/07 04:51:26;;;;;;;31.95;8.93;;;;;;;;;;4731618;30;20062;-63
2023/04/07 04:54:02;;;;;;;22.35;8.65;;;;;;;;;;4743295;30;20064;-63
2023/04/07 04:56:33;;;;;;;24.27;8.85;;;;;;;;;;4709109;30;20092;-62
2023/04/07 04:59:04;;;;;;;25.02;8.63;;;;;;;;;;4694648;30;20529;-62
2023/04/07 05:01:50;;;;;;;24.92;9.65;;;;;;;;;;4777100;30;20144;-64
2023/04/07 05:04:21;;;;;;;23.92;8.63;;;;;;;;;;4771450;30;20056;-63
2023/04/07 05:06:59;;;;;;;25.45;8.93;;;;;;;;;;4717744;30;20088;-63
2023/04/07 05:09:31;;;;;;;26.33;9.00;;;;;;;;;;4724751;30;20063;-64
2023/04/07 05:12:01;;;;;;;21.75;7.90;;;;;;;;;;4718766;30;20068;-63
2023/04/07 05:14:35;;;;;;;28.73;8.43;;;;;;;;;;4714017;30;20544;-64
2023/04/07 05:17:08;;;;;;;26.30;8.77;;;;;;;;;;4724579;30;20082;-63
2023/04/07 05:19:38;;;;;;;26.92;9.95;;;;;;;;;;4731461;30;20544;-64
2023/04/07 05:22:18;;;;;;;21.25;7.68;;;;;;;;;;4731491;30;20060;-63
2023/04/07 05:24:48;;;;;;;22.63;7.57;;;;;;;;;;4739586;30;20056;-63
2023/04/07 05:27:18;;;;;;;21.70;6.90;;;;;;;;;;4749034;30;20059;-63
2023/04/07 05:29:53;;;;;;;18.02;6.25;;;;;;;;;;4749007;30;20059;-63
2023/04/07 05:32:28;;;;;;;23.25;7.05;;;;;;;;;;4771052;29;20062;-63
2023/04/07 05:35:03;;;;;;;24.75;8.07;;;;;;;;;;4770140;30;20059;-63
2023/04/07 05:37:36;;;;;;;18.52;6.93;;;;;;;;;;4765055;30;20056;-63
2023/04/07 05:40:07;;;;;;;21.75;5.72;;;;;;;;;;4784521;30;20066;-63
2023/04/07 05:42:38;;;;;;;17.35;6.90;;;;;;;;;;4766329;30;20402;-64
2023/04/07 05:45:09;;;;;;;19.48;6.63;;;;;;;;;;4748765;30;20063;-64
2023/04/07 05:47:42;;;;;;;14.30;5.35;;;;;;;;;;4734217;30;20067;-64
2023/04/07 05:50:13;;;;;;;18.20;5.55;;;;;;;;;;4749133;30;20056;-63
2023/04/07 05:52:45;;;;;;;14.55;5.32;;;;;;;;;;4748484;30;20048;-63
2023/04/07 05:55:21;;;;;;;14.95;5.30;;;;;;;;;;4744673;30;20086;-63
2023/04/07 05:57:52;;;;;;;16.55;5.43;;;;;;;;;;4748134;30;20079;-64
2023/04/07 06:00:26;;;;;;;16.30;5.47;;;;;;;;;;4748460;30;20060;-63
2023/04/07 06:03:07;;;;;;;18.33;5.65;;;;;;;;;;4766493;30;20056;-63
2023/04/07 06:05:49;;;;;;;20.83;6.22;;;;;;;;;;4780982;30;20097;-64
2023/04/07 06:08:21;;;;;;;18.42;5.82;;;;;;;;;;4773063;29;20536;-63
2023/04/07 06:10:52;;;;;;;16.02;5.50;;;;;;;;;;4769780;30;20052;-63
2023/04/07 06:13:22;;;;;;;16.63;5.38;;;;;;;;;;4753111;30;20067;-63
2023/04/07 06:15:55;;;;;;;18.70;5.80;;;;;;;;;;4747886;30;20643;-64
2023/04/07 06:18:25;;;;;;;17.52;6.38;;;;;;;;;;4735349;30;20064;-63
2023/04/07 06:20:55;;;;;;;15.52;5.68;;;;;;;;;;4717138;30;20061;-63
2023/04/07 06:23:26;;;;;;;15.82;5.22;;;;;;;;;;4748323;30;20057;-63
2023/04/07 06:25:55;;;;;;;13.68;4.95;;;;;;;;;;4747221;30;20412;-63
2023/04/07 06:28:25;;;;;;;15.32;4.82;;;;;;;;;;4766034;30;20417;-63
2023/04/07 06:30:55;;;;;;;14.55;4.88;;;;;;;;;;4748274;30;20060;-63
2023/04/07 06:33:27;;;;;;;12.38;4.32;;;;;;;;;;4765862;30;20052;-63
2023/04/07 06:35:57;;;;;;;9.25;3.72;;;;;;;;;;4730892;30;20064;-63
2023/04/07 06:38:26;;;;;;;11.60;4.22;;;;;;;;;;4748409;30;20075;-63
2023/04/07 06:40:58;;;;;;;14.20;4.20;;;;;;;;;;4765937;30;20061;-63
2023/04/07 06:43:27;;;;;;;12.65;4.20;;;;;;;;;;4780779;30;20055;-63
2023/04/07 06:46:02;;;;;;;18.50;5.68;;;;;;;;;;4801515;29;20058;-63
2023/04/07 06:48:32;;;;;;;24.95;5.80;;;;;;;;;;4784017;29;20069;-63
2023/04/07 06:51:03;;;;;;;24.75;5.57;;;;;;;;;;4819960;29;20062;-63
2023/04/07 06:53:32;;;;;;;32.08;8.13;;;;;;;;;;4828981;29;20053;-64
2023/04/07 06:56:04;;;;;;;32.00;8.68;;;;;;;;;;4822751;29;20058;-62
2023/04/07 06:58:35;;;;;;;35.20;9.10;;;;;;;;;;4829074;29;20063;-63
2023/04/07 07:01:06;;;;;;;31.38;7.45;;;;;;;;;;4829178;29;20054;-63
2023/04/07 07:03:36;;;;;;;38.55;8.07;;;;;;;;;;4847146;29;20061;-63
2023/04/07 07:06:05;;;;;;;23.02;6.63;;;;;;;;;;4878109;29;20063;-64
2023/04/07 07:08:35;;;;;;;24.38;7.03;;;;;;;;;;4941458;28;20160;-63
2023/04/07 07:11:05;;;;;;;19.17;5.97;;;;;;;;;;4901674;29;20062;-63
2023/04/07 07:13:35;;;;;;;13.82;5.25;;;;;;;;;;4935562;29;20416;-63
2023/04/07 07:16:05;;;;;;;15.80;4.90;;;;;;;;;;4935434;29;20059;-63
2023/04/07 07:18:35;;;;;;;20.85;5.50;;;;;;;;;;4935150;29;20063;-63
2023/04/07 07:21:05;;;;;;;27.88;6.88;;;;;;;;;;4935455;29;20456;-63
2023/04/07 07:23:35;;;;;;;21.98;5.70;;;;;;;;;;4944188;29;20055;-63
2023/04/07 07:26:05;;;;;;;23.42;6.60;;;;;;;;;;4938808;29;20051;-63
2023/04/07 07:28:35;;;;;;;31.85;7.25;;;;;;;;;;4906855;29;20055;-63
2023/04/07 07:31:09;;;;;;;32.15;7.75;;;;;;;;;;4922397;29;20078;-63
2023/04/07 07:33:42;;;;;;;29.90;7.28;;;;;;;;;;4938413;29;20066;-63
2023/04/07 07:36:12;;;;;;;33.58;7.05;;;;;;;;;;4954285;29;20055;-63
2023/04/07 07:38:42;;;;;;;24.55;6.93;;;;;;;;;;4954056;29;20145;-63
2023/04/07 07:41:11;;;;;;;24.75;6.95;;;;;;;;;;4946591;29;20055;-63
2023/04/07 07:43:41;;;;;;;18.15;5.72;;;;;;;;;;4954172;29;20051;-63
2023/04/07 07:46:11;;;;;;;15.38;5.22;;;;;;;;;;4954261;29;20039;-63
2023/04/07 07:48:41;;;;;;;14.07;4.75;;;;;;;;;;4974066;28;20054;-63
2023/04/07 07:51:10;;;;;;;16.20;4.60;;;;;;;;;;4976765;28;20050;-63
2023/04/07 07:53:40;;;;;;;10.73;4.15;;;;;;;;;;4977011;28;20050;-63
2023/04/07 07:56:11;;;;;;;6.78;3.08;;;;;;;;;;5010194;28;20507;-63
2023/04/07 07:58:41;;;;;;;5.82;2.92;;;;;;;;;;4996736;28;20541;-63
2023/04/07 08:01:11;;;;;;;6.70;3.10;;;;;;;;;;5006707;28;20398;-63
2023/04/07 08:03:41;;;;;;;7.13;3.13;;;;;;;;;;5014605;28;20498;-63
2023/04/07 08:06:11;;;;;;;6.25;2.92;;;;;;;;;;5014599;28;20046;-63
2023/04/07 08:08:41;;;;;;;6.53;2.65;;;;;;;;;;4956869;28;20054;-63
2023/04/07 08:11:11;;;;;;;7.05;3.35;;;;;;;;;;4973112;28;20051;-63
2023/04/07 08:13:44;;;;;;;8.13;3.15;;;;;;;;;;4972881;28;20666;-63
2023/04/07 08:16:14;;;;;;;8.02;3.35;;;;;;;;;;4940763;28;20047;-63
2023/04/07 08:18:45;;;;;;;8.15;3.22;;;;;;;;;;4956575;28;20051;-64
2023/04/07 08:21:15;;;;;;;6.63;3.30;;;;;;;;;;4972276;28;20557;-63
2023/04/07 08:23:45;;;;;;;7.93;3.22;;;;;;;;;;4940069;28;20055;-63
2023/04/07 08:26:15;;;;;;;9.75;3.55;;;;;;;;;;4973147;28;20062;-63
2023/04/07 08:28:45;;;;;;;9.18;4.38;;;;;;;;;;4924554;28;20051;-64
2023/04/07 08:31:15;;;;;;;9.40;3.15;;;;;;;;;;4940599;28;20085;-63
2023/04/07 08:33:45;;;;;;;7.07;4.22;;;;;;;;;;4972560;28;20085;-63
2023/04/07 08:36:15;;;;;;;10.10;3.92;;;;;;;;;;4933767;29;20058;-63
2023/04/07 08:38:45;;;;;;;10.48;4.25;;;;;;;;;;4934122;29;20511;-64
2023/04/07 08:41:23;;;;;;;13.30;3.95;;;;;;;;;;4934024;29;20082;-63
2023/04/07 08:43:55;;;;;;;9.02;3.70;;;;;;;;;;4919034;29;20078;-62
2023/04/07 08:46:26;;;;;;;7.10;3.67;;;;;;;;;;4944249;29;20411;-63
2023/04/07 08:48:57;;;;;;;13.25;4.88;;;;;;;;;;4906120;29;20054;-63
2023/04/07 08:51:30;;;;;;;12.82;4.57;;;;;;;;;;4937753;29;20467;-63
2023/04/07 08:54:06;;;;;;;22.00;5.25;;;;;;;;;;4953082;29;20047;-63
2023/04/07 08:56:42;;;;;;;14.23;4.88;;;;;;;;;;4952696;29;20074;-63
2023/04/07 08:59:14;;;;;;;14.60;5.22;;;;;;;;;;4920854;29;20067;-63
2023/04/07 09:01:45;;;;;;;21.75;6.85;;;;;;;;;;4952962;29;20071;-63
2023/04/07 09:04:15;;;;;;;23.27;7.45;;;;;;;;;;4920991;29;20059;-63
2023/04/07 09:06:45;;;;;;;42.35;8.85;;;;;;;;;;4963303;28;20068;-63
2023/04/07 09:09:16;;;;;;;34.72;10.27;;;;;;;;;;5011013;28;20054;-64
2023/04/07 09:11:48;;;;;;;31.75;8.63;;;;;;;;;;4946027;28;20065;-63
2023/04/07 09:14:19;;;;;;;22.67;6.85;;;;;;;;;;5010900;28;20050;-63
2023/04/07 09:16:49;;;;;;;18.98;6.28;;;;;;;;;;4971858;28;20050;-63
2023/04/07 09:19:21;;;;;;;16.50;5.32;;;;;;;;;;4939282;28;20766;-63
2023/04/07 09:21:52;;;;;;;13.80;5.30;;;;;;;;;;4939511;28;20066;-63
2023/04/07 09:24:27;;;;;;;14.27;5.50;;;;;;;;;;4955433;28;20078;-63
2023/04/07 09:27:14;;;;;;;17.98;5.25;;;;;;;;;;4939454;28;20067;-63
2023/04/07 09:29:46;;;;;;;19.67;6.28;;;;;;;;;;4971505;28;20047;-63
2023/04/07 09:32:37;;;;;;;17.10;5.70;;;;;;;;;;4971482;28;20066;-63
2023/04/07 09:35:07;;;;;;;16.67;5.30;;;;;;;;;;4955156;28;20514;-63
2023/04/07 09:37:37;;;;;;;17.48;6.22;;;;;;;;;;4971741;28;20051;-63
2023/04/07 09:40:08;;;;;;;19.95;6.03;;;;;;;;;;4971207;28;20047;-63
2023/04/07 09:42:45;;;;;;;17.33;5.70;;;;;;;;;;4923504;28;20055;-63
2023/04/07 09:45:27;;;;;;;14.73;5.60;;;;;;;;;;4971345;28;20530;-62
2023/04/07 09:48:07;;;;;;;19.38;5.85;;;;;;;;;;4971193;28;20059;-62
2023/04/07 09:50:40;;;;;;;12.90;4.07;;;;;;;;;;4938905;28;20499;-62
2023/04/07 09:53:10;;;;;;;12.90;4.45;;;;;;;;;;4955091;28;20058;-62
2023/04/07 09:55:41;;;;;;;12.45;4.13;;;;;;;;;;5012763;28;20065;-63
2023/04/07 09:58:15;;;;;;;10.55;4.38;;;;;;;;;;5012302;28;20516;-62
2023/04/07 10:00:46;;;;;;;10.43;4.25;;;;;;;;;;4990220;28;20062;-62
2023/04/07 10:03:16;;;;;;;23.15;5.20;;;;;;;;;;4957766;28;20146;-62
2023/04/07 10:05:47;;;;;;;26.65;6.25;;;;;;;;;;4990459;28;20057;-62
2023/04/07 10:08:17;;;;;;;37.00;7.47;;;;;;;;;;4990213;28;20522;-62
2023/04/07 10:10:49;;;;;;;31.55;6.35;;;;;;;;;;4958535;28;20050;-61
2023/04/07 10:13:20;;;;;;;32.20;6.45;;;;;;;;;;4989927;28;20054;-62
2023/04/07 10:15:50;;;;;;;33.03;6.78;;;;;;;;;;4958053;28;20593;-63
2023/04/07 10:18:22;;;;;;;37.20;6.72;;;;;;;;;;4989987;28;20062;-63
2023/04/07 10:20:55;;;;;;;34.78;6.88;;;;;;;;;;4990258;28;20057;-61
2023/04/07 10:23:34;;;;;;;36.97;7.03;;;;;;;;;;4989964;28;20057;-62
2023/04/07 10:26:06;;;;;;;45.58;7.82;;;;;;;;;;4941991;28;20065;-62
2023/04/07 10:28:42;;;;;;;37.60;7.38;;;;;;;;;;4958480;28;20062;-62
2023/04/07 10:31:12;;;;;;;37.13;7.43;;;;;;;;;;4989995;28;20069;-62
2023/04/07 10:33:51;;;;;;;44.70;8.25;;;;;;;;;;4931653;29;20062;-62
2023/04/07 10:36:21;;;;;;;39.03;7.57;;;;;;;;;;4891020;29;20554;-62
2023/04/07 10:39:06;;;;;;;39.80;7.68;;;;;;;;;;4932563;29;20535;-62
2023/04/07 10:41:37;;;;;;;39.00;8.13;;;;;;;;;;4919422;29;20063;-62
2023/04/07 10:44:10;;;;;;;37.55;7.55;;;;;;;;;;4950874;28;20043;-62
2023/04/07 10:46:47;;;;;;;42.05;7.68;;;;;;;;;;4902708;29;20054;-62
2023/04/07 10:49:17;;;;;;;41.33;8.13;;;;;;;;;;4950961;29;20054;-62
2023/04/07 10:52:11;;;;;;;42.88;8.50;;;;;;;;;;4919193;29;20062;-62
2023/04/07 10:54:41;;;;;;;39.95;8.55;;;;;;;;;;4950917;29;20059;-62
2023/04/07 10:57:15;;;;;;;41.20;8.23;;;;;;;;;;4950438;28;20070;-62
2023/04/07 11:00:10;;;;;;;36.13;8.05;;;;;;;;;;4902849;29;20054;-62
2023/04/07 11:02:41;;;;;;;34.88;8.32;;;;;;;;;;4934495;29;20051;-62
2023/04/07 11:05:22;;;;;;;29.90;8.23;;;;;;;;;;4950960;28;20508;-62
2023/04/07 11:07:58;;;;;;;37.22;9.10;;;;;;;;;;4902844;29;20055;-62
2023/04/07 11:10:28;;;;;;;40.88;9.88;;;;;;;;;;4941831;28;20057;-62
2023/04/07 11:13:02;;;;;;;31.45;8.15;;;;;;;;;;5009921;28;20494;-62
2023/04/07 11:15:35;;;;;;;34.63;8.75;;;;;;;;;;5011231;28;20053;-63
2023/04/07 11:18:15;;;;;;;39.30;10.02;;;;;;;;;;4944277;28;20038;-62
2023/04/07 11:20:52;;;;;;;33.63;9.32;;;;;;;;;;4976731;28;20053;-62
2023/04/07 11:23:24;;;;;;;34.83;10.02;;;;;;;;;;5011351;28;20375;-63
2023/04/07 11:26:03;;;;;;;35.30;9.20;;;;;;;;;;5011260;28;20072;-62
2023/04/07 11:28:32;;;;;;;;;;;;;;;;;;4994162;28;20498;-62
2023/04/07 11:31:03;;;;;;;33.65;9.82;;;;;;;;;;4976687;28;19922;-62
2023/04/07 11:33:35;;;;;;;35.15;10.32;;;;;;;;;;5011284;28;20061;-62
2023/04/07 11:36:07;;;;;;;39.83;9.50;;;;;;;;;;4993203;28;20049;-63
2023/04/07 11:38:38;;;;;;;33.53;9.00;;;;;;;;;;4979095;28;20060;-63
2023/04/07 11:41:13;;;;;;;29.10;8.55;;;;;;;;;;5030838;28;20046;-63
2023/04/07 11:43:43;;;;;;;27.23;8.30;;;;;;;;;;5015777;28;20049;-63
2023/04/07 11:46:15;;;;;;;31.85;9.88;;;;;;;;;;5048445;28;20049;-63
2023/04/07 11:48:46;;;;;;;32.92;9.38;;;;;;;;;;5050709;28;20044;-63
2023/04/07 11:51:18;;;;;;;33.45;9.43;;;;;;;;;;5050738;28;20041;-63
2023/04/07 11:53:55;;;;;;;32.38;9.43;;;;;;;;;;5050559;28;20049;-63
2023/04/07 11:56:26;;;;;;;29.13;7.90;;;;;;;;;;5016875;28;20053;-63
2023/04/07 11:58:56;;;;;;;30.50;9.43;;;;;;;;;;5015778;28;20516;-63
2023/04/07 12:01:40;;;;;;;30.58;8.73;;;;;;;;;;5019624;28;20552;-63
2023/04/07 12:04:16;;;;;;;28.10;9.00;;;;;;;;;;5053724;28;20056;-63
2023/04/07 12:06:48;;;;;;;30.88;8.95;;;;;;;;;;5003810;28;20045;-63
2023/04/07 12:09:30;;;;;;;29.75;9.43;;;;;;;;;;5054403;28;20055;-63
2023/04/07 12:12:04;;;;;;;24.20;7.82;;;;;;;;;;4986903;28;20048;-63
2023/04/07 12:14:35;;;;;;;24.40;7.70;;;;;;;;;;4959747;28;20042;-63
2023/04/07 12:17:06;;;;;;;26.58;8.23;;;;;;;;;;4992433;28;20059;-63
2023/04/07 12:19:38;;;;;;;29.05;8.05;;;;;;;;;;4991485;28;20054;-63
2023/04/07 12:22:08;;;;;;;24.35;7.85;;;;;;;;;;4992493;28;20053;-63
2023/04/07 12:24:38;;;;;;;23.10;7.25;;;;;;;;;;4990104;28;20042;-63
2023/04/07 12:27:08;;;;;;;26.02;8.35;;;;;;;;;;4982603;28;20059;-63
2023/04/07 12:29:39;;;;;;;29.13;8.90;;;;;;;;;;4989167;28;20054;-64
2023/04/07 12:32:09;;;;;;;34.42;10.30;;;;;;;;;;4943092;28;20057;-63
2023/04/07 12:34:39;;;;;;;24.08;8.57;;;;;;;;;;4971939;28;20069;-63
2023/04/07 12:37:09;;;;;;;24.25;7.47;;;;;;;;;;4949446;28;20558;-63
2023/04/07 12:39:39;;;;;;;27.05;9.32;;;;;;;;;;4961114;28;20530;-63
2023/04/07 12:42:10;;;;;;;25.05;8.18;;;;;;;;;;4970455;28;20092;-63
2023/04/07 12:44:40;;;;;;;28.42;9.68;;;;;;;;;;4972295;28;20066;-63
2023/04/07 12:47:11;;;;;;;37.47;11.82;;;;;;;;;;4972468;28;20055;-63
2023/04/07 12:49:40;;;;;;;30.65;10.88;;;;;;;;;;4972352;28;20051;-63
2023/04/07 12:52:11;;;;;;;35.78;10.65;;;;;;;;;;4991394;28;20050;-63
2023/04/07 12:54:43;;;;;;;40.22;11.82;;;;;;;;;;4972114;28;20514;-63
2023/04/07 12:57:13;;;;;;;34.30;12.27;;;;;;;;;;4952812;29;20070;-63
2023/04/07 12:59:43;;;;;;;31.60;9.88;;;;;;;;;;4952582;29;20054;-63
2023/04/07 13:02:14;;;;;;;35.25;11.68;;;;;;;;;;4964720;28;20541;-63
2023/04/07 13:04:45;;;;;;;28.80;10.30;;;;;;;;;;4972147;28;20510;-63
2023/04/07 13:07:16;;;;;;;28.50;9.93;;;;;;;;;;4971712;28;20058;-63
2023/04/07 13:09:45;;;;;;;26.30;9.98;;;;;;;;;;4955282;28;20062;-63
2023/04/07 13:12:15;;;;;;;24.35;9.70;;;;;;;;;;4955885;28;20058;-62
2023/04/07 13:14:45;;;;;;;23.90;9.52;;;;;;;;;;4971876;28;20062;-64
2023/04/07 13:17:27;;;;;;;20.23;8.57;;;;;;;;;;4939637;28;20058;-63
2023/04/07 13:19:58;;;;;;;20.15;8.80;;;;;;;;;;4945034;29;20108;-64
2023/04/07 13:22:27;;;;;;;23.38;8.95;;;;;;;;;;4952580;29;20051;-64
2023/04/07 13:24:59;;;;;;;21.70;9.65;;;;;;;;;;4921742;28;20051;-64
2023/04/07 13:27:29;;;;;;;20.90;10.43;;;;;;;;;;4949903;29;20415;-64
2023/04/07 13:29:59;;;;;;;18.70;8.13;;;;;;;;;;4952337;29;20066;-63
2023/04/07 13:32:29;;;;;;;17.05;7.93;;;;;;;;;;4903595;28;20073;-63
2023/04/07 13:34:58;;;;;;;16.02;8.10;;;;;;;;;;4974505;28;20529;-63
2023/04/07 13:37:28;;;;;;;15.15;8.13;;;;;;;;;;4974060;28;20061;-64
2023/04/07 13:39:58;;;;;;;16.88;7.90;;;;;;;;;;4990746;28;20042;-63
2023/04/07 13:42:27;;;;;;;14.65;7.78;;;;;;;;;;4974117;28;20057;-64
2023/04/07 13:44:57;;;;;;;14.05;6.78;;;;;;;;;;4974403;28;20061;-63
2023/04/07 13:47:29;;;;;;;11.82;7.40;;;;;;;;;;4990701;28;20047;-64
2023/04/07 13:50:00;;;;;;;11.30;6.07;;;;;;;;;;4974191;28;20541;-64
2023/04/07 13:52:33;;;;;;;9.80;5.57;;;;;;;;;;4951054;29;20062;-64
2023/04/07 13:55:04;;;;;;;9.32;5.35;;;;;;;;;;4920359;29;20059;-65
2023/04/07 13:57:34;;;;;;;10.63;5.93;;;;;;;;;;4914557;29;20063;-64
2023/04/07 14:00:06;;;;;;;10.52;5.22;;;;;;;;;;4950927;29;20051;-64
2023/04/07 14:02:36;;;;;;;9.95;5.05;;;;;;;;;;4970398;28;20058;-64
2023/04/07 14:05:06;;;;;;;9.18;4.80;;;;;;;;;;4990005;28;20461;-64
2023/04/07 14:07:36;;;;;;;7.85;4.18;;;;;;;;;;4989413;28;20170;-64
2023/04/07 14:10:07;;;;;;;9.23;4.57;;;;;;;;;;4970750;28;20055;-64
2023/04/07 14:12:38;;;;;;;10.30;5.22;;;;;;;;;;4923231;28;20062;-64
2023/04/07 14:15:09;;;;;;;8.52;4.07;;;;;;;;;;4971123;28;20564;-64
2023/04/07 14:17:39;;;;;;;8.90;5.30;;;;;;;;;;4938496;28;20085;-64
2023/04/07 14:20:09;;;;;;;9.80;5.57;;;;;;;;;;4970686;28;20050;-64
2023/04/07 14:22:39;;;;;;;8.05;5.07;;;;;;;;;;4975749;28;20047;-64
2023/04/07 14:25:10;;;;;;;7.00;3.80;;;;;;;;;;4980545;28;20072;-64
2023/04/07 14:27:40;;;;;;;7.47;4.20;;;;;;;;;;4980561;28;20532;-64
2023/04/07 14:30:10;;;;;;;8.43;3.67;;;;;;;;;;5032013;28;20045;-64
2023/04/07 14:32:40;;;;;;;6.57;4.18;;;;;;;;;;4996225;28;20050;-64
2023/04/07 14:35:10;;;;;;;8.20;5.00;;;;;;;;;;4953864;28;20067;-64
2023/04/07 14:37:40;;;;;;;6.57;3.38;;;;;;;;;;4950864;29;20054;-64
2023/04/07 14:40:10;;;;;;;9.85;4.05;;;;;;;;;;4934773;29;20385;-63
2023/04/07 14:42:40;;;;;;;8.00;3.90;;;;;;;;;;4872563;29;20784;-64
2023/04/07 14:45:11;;;;;;;6.00;3.65;;;;;;;;;;4916615;28;20059;-64
2023/04/07 14:47:41;;;;;;;7.25;3.67;;;;;;;;;;4969914;28;20069;-64
2023/04/07 14:50:11;;;;;;;6.28;4.03;;;;;;;;;;4969661;28;20096;-64
2023/04/07 14:52:42;;;;;;;6.43;4.05;;;;;;;;;;4968159;28;20059;-64
2023/04/07 14:55:12;;;;;;;6.22;3.50;;;;;;;;;;4933271;29;20047;-64
2023/04/07 14:57:42;;;;;;;5.53;3.42;;;;;;;;;;4949265;29;20500;-64
2023/04/07 15:00:13;;;;;;;6.80;2.97;;;;;;;;;;4950778;29;20535;-64
2023/04/07 15:02:43;;;;;;;5.80;2.75;;;;;;;;;;4902331;29;20059;-64